Terminal Aerodrome Forecast
Issued by NWS

Home | Current Version | Previous Version | Text Only | Print | Product List | Glossary On
Versions: 1 2 3 4 5 6 7 8 9 10 11 12 13 14 15 16 17 18 19 20 21 22 23 24 25
000
FTUS44 KTSA 190500
TAFMLC
TAF
KMLC 190537Z 1906/2006 03004KT 6SM BR SCT007 BKN012
     FM190800 03002KT 4SM BR OVC006
     FM191600 03004KT 6SM BR OVC007
     FM191900 02004KT P6SM OVC012
     FM200100 00000KT P6SM BKN025=

USA.gov is the U.S. government's official web portal to all federal, state and local government web resources and services.